Time;durP1;ratioP1;P1;durP2;ratioP2;P2;SDS_P1;SDS_P2;PMS_P1;PMS_P2;Temp;Humidity;BMP_temperature;BMP_pressure;BME280_temperature;BME280_humidity;BME280_pressure;Samples;Min_cycle;Max_cycle;Signal;HPM_P1;HPM_P2
2023/07/15 00:00:21;;;;;;;5.05;3.05;;;19.70;99.90;;;;;;4991380;28;20488;-66
2023/07/15 00:02:46;;;;;;;4.55;2.70;;;19.70;99.90;;;;;;4987563;28;20065;-66
2023/07/15 00:05:35;;;;;;;4.30;2.70;;;19.70;99.90;;;;;;4992422;28;20073;-66
2023/07/15 00:08:01;;;;;;;4.75;2.60;;;19.70;99.90;;;;;;4999765;28;20103;-67
2023/07/15 00:10:27;;;;;;;4.65;2.72;;;19.70;99.90;;;;;;4990608;28;20559;-66
2023/07/15 00:12:54;;;;;;;5.78;2.40;;;19.80;99.90;;;;;;4993465;28;20038;-66
2023/07/15 00:15:20;;;;;;;6.07;2.70;;;19.70;99.90;;;;;;4995157;28;20121;-66
2023/07/15 00:17:45;;;;;;;6.53;2.58;;;19.70;99.90;;;;;;4992891;28;20121;-66
2023/07/15 00:20:14;;;;;;;7.03;3.22;;;19.70;99.90;;;;;;4998131;28;20377;-67
2023/07/15 00:22:43;;;;;;;5.85;2.47;;;19.80;99.90;;;;;;5001938;28;20044;-66
2023/07/15 00:25:15;;;;;;;5.97;2.97;;;19.80;99.90;;;;;;5000048;28;20142;-66
2023/07/15 00:27:42;;;;;;;2.90;2.00;;;19.80;99.90;;;;;;4990926;28;20068;-66
2023/07/15 00:30:09;;;;;;;4.20;2.70;;;19.80;99.90;;;;;;4992466;28;20496;-66
2023/07/15 00:32:35;;;;;;;4.13;2.50;;;19.80;99.90;;;;;;4992132;28;20483;-66
2023/07/15 00:35:00;;;;;;;4.82;2.42;;;19.80;99.90;;;;;;4998797;28;20030;-67
2023/07/15 00:37:26;;;;;;;5.38;2.58;;;19.80;99.90;;;;;;4990307;28;20056;-66
2023/07/15 00:39:52;;;;;;;6.55;2.88;;;19.90;99.90;;;;;;4992054;28;20085;-66
2023/07/15 00:42:39;;;;;;;5.78;2.05;;;19.90;99.90;;;;;;4991381;28;20031;-66
2023/07/15 00:45:06;;;;;;;;;;;19.90;99.90;;;;;;4995163;28;20547;-66
2023/07/15 00:47:39;;;;;;;6.65;2.35;;;19.90;99.90;;;;;;4991347;28;19925;-67
2023/07/15 00:50:06;;;;;;;9.52;2.75;;;19.90;99.90;;;;;;4994434;28;20049;-66
2023/07/15 00:52:32;;;;;;;5.32;2.30;;;19.90;99.90;;;;;;4993499;28;20100;-67
2023/07/15 00:54:58;;;;;;;3.88;2.13;;;19.90;99.90;;;;;;4992864;28;20117;-66
2023/07/15 00:57:24;;;;;;;;;;;19.90;99.90;;;;;;4998789;28;20053;-66
2023/07/15 00:59:52;;;;;;;6.53;2.50;;;19.90;99.90;;;;;;4998192;28;19917;-66
2023/07/15 01:02:18;;;;;;;5.30;2.20;;;19.90;99.90;;;;;;4988139;28;20042;-66
2023/07/15 01:04:45;;;;;;;;;;;20.00;99.90;;;;;;4986484;28;20419;-66
2023/07/15 01:07:11;;;;;;;5.03;2.47;;;19.90;99.90;;;;;;4993511;28;19928;-66
2023/07/15 01:09:37;;;;;;;4.88;2.40;;;19.90;99.90;;;;;;4991821;28;20038;-67
2023/07/15 01:12:04;;;;;;;6.53;3.28;;;19.90;99.90;;;;;;4992355;28;20297;-66
2023/07/15 01:14:30;;;;;;;5.22;2.45;;;20.00;99.90;;;;;;4997554;28;20041;-67
2023/07/15 01:16:56;;;;;;;6.55;2.25;;;20.00;99.90;;;;;;4991554;28;20046;-67
2023/07/15 01:19:22;;;;;;;5.60;2.50;;;20.00;99.90;;;;;;4991796;28;20119;-67
2023/07/15 01:21:49;;;;;;;;;;;20.00;99.90;;;;;;4988015;28;20050;-67
2023/07/15 01:24:15;;;;;;;;;;;20.00;99.90;;;;;;4992141;28;19917;-67
2023/07/15 01:26:41;;;;;;;3.70;2.00;;;19.90;99.90;;;;;;4992502;28;19921;-67
2023/07/15 01:31:42;;;;;;;5.60;2.13;;;20.00;99.90;;;;;;5036086;28;20406;-69
2023/07/15 01:34:08;;;;;;;3.55;2.20;;;20.00;99.90;;;;;;5025581;28;20063;-69
2023/07/15 01:36:34;;;;;;;4.38;2.15;;;20.00;99.90;;;;;;5041064;28;20372;-69
2023/07/15 01:39:00;;;;;;;5.88;2.50;;;20.00;99.90;;;;;;5040706;28;20049;-69
2023/07/15 01:41:26;;;;;;;4.20;2.03;;;20.00;99.90;;;;;;5016910;28;20139;-69
2023/07/15 01:43:52;;;;;;;4.60;2.55;;;20.00;99.90;;;;;;5023300;28;20116;-69
2023/07/15 01:46:17;;;;;;;3.90;1.90;;;20.00;99.90;;;;;;5040317;28;20140;-69
2023/07/15 01:48:44;;;;;;;4.75;2.50;;;20.00;99.90;;;;;;5021362;28;20121;-69
2023/07/15 01:51:09;;;;;;;;;;;20.00;99.90;;;;;;5021415;28;20047;-69
2023/07/15 01:53:35;;;;;;;3.35;2.10;;;20.00;99.90;;;;;;5043612;28;19916;-69
2023/07/15 01:56:00;;;;;;;6.28;2.50;;;20.00;99.90;;;;;;5026459;28;20045;-69
2023/07/15 01:58:26;;;;;;;3.35;1.90;;;20.00;99.90;;;;;;5032283;28;20072;-69
2023/07/15 02:00:52;;;;;;;5.57;1.60;;;20.10;99.90;;;;;;5041322;28;20045;-69
2023/07/15 02:03:18;;;;;;;7.50;1.98;;;20.10;99.90;;;;;;5017101;28;20069;-69
2023/07/15 02:05:43;;;;;;;4.93;1.90;;;20.20;99.90;;;;;;5012516;28;20045;-71
2023/07/15 02:08:09;;;;;;;6.28;2.15;;;20.20;99.90;;;;;;5039046;28;20475;-69
2023/07/15 02:10:35;;;;;;;4.55;1.88;;;20.30;99.90;;;;;;5013052;28;20037;-69
2023/07/15 02:13:01;;;;;;;3.30;1.63;;;20.40;99.90;;;;;;5030092;28;20447;-70
2023/07/15 02:15:27;;;;;;;3.40;1.70;;;20.40;99.90;;;;;;5019349;28;20085;-70
2023/07/15 02:17:52;;;;;;;2.28;1.40;;;20.40;99.90;;;;;;5035428;28;20356;-70
2023/07/15 02:20:19;;;;;;;3.88;1.60;;;20.40;99.90;;;;;;5005702;28;20428;-69
2023/07/15 02:22:44;;;;;;;5.05;1.55;;;20.40;99.90;;;;;;5045795;28;20041;-70
2023/07/15 02:25:10;;;;;;;7.03;1.92;;;20.40;99.90;;;;;;5033434;28;20043;-70
2023/07/15 02:27:36;;;;;;;4.65;1.90;;;20.50;99.90;;;;;;5020145;28;20483;-70
2023/07/15 02:30:05;;;;;;;3.95;1.48;;;20.50;99.90;;;;;;5017151;28;20132;-70
2023/07/15 02:32:42;;;;;;;5.45;1.85;;;20.60;99.90;;;;;;5045751;28;20130;-69
2023/07/15 02:35:13;;;;;;;4.85;1.90;;;20.60;99.90;;;;;;5035837;28;20037;-70
2023/07/15 02:37:43;;;;;;;3.15;1.95;;;20.60;99.90;;;;;;5022518;28;20068;-70
2023/07/15 02:40:10;;;;;;;5.32;1.80;;;20.60;99.90;;;;;;5025678;28;20468;-70
2023/07/15 02:42:36;;;;;;;2.83;1.77;;;20.60;99.90;;;;;;5035009;28;20123;-70
2023/07/15 02:45:06;;;;;;;2.88;1.60;;;20.60;99.90;;;;;;5045361;28;20124;-70
2023/07/15 02:47:33;;;;;;;6.22;2.05;;;20.60;99.90;;;;;;5022743;28;20040;-70
2023/07/15 02:50:03;;;;;;;5.15;1.70;;;20.60;99.90;;;;;;5022895;28;20037;-70
2023/07/15 02:52:30;;;;;;;5.18;2.00;;;20.60;99.90;;;;;;5020864;28;20122;-70
2023/07/15 02:54:56;;;;;;;4.85;2.03;;;20.70;99.90;;;;;;5035575;28;20099;-70
2023/07/15 02:57:22;;;;;;;4.88;2.30;;;20.60;99.90;;;;;;5041833;28;20470;-69
2023/07/15 02:59:49;;;;;;;3.22;1.67;;;20.70;99.90;;;;;;5047065;28;20042;-69
2023/07/15 03:02:15;;;;;;;3.78;1.90;;;20.70;99.90;;;;;;5036668;28;20121;-69
2023/07/15 03:04:41;;;;;;;3.88;1.73;;;20.70;99.90;;;;;;5036666;28;20043;-69
2023/07/15 03:07:13;;;;;;;2.97;1.77;;;20.80;99.90;;;;;;5033149;28;20495;-69
2023/07/15 03:09:39;;;;;;;5.38;1.92;;;20.80;99.90;;;;;;5020927;28;20041;-69
2023/07/15 03:12:04;;;;;;;;;;;20.80;99.90;;;;;;5037293;28;20073;-69
2023/07/15 03:14:30;;;;;;;4.43;1.65;;;20.80;99.90;;;;;;5035149;28;20384;-69
2023/07/15 03:16:56;;;;;;;5.57;2.08;;;20.80;99.90;;;;;;5017011;28;20038;-69
2023/07/15 03:19:22;;;;;;;6.75;2.22;;;20.80;99.90;;;;;;5022683;28;20502;-69
2023/07/15 03:21:48;;;;;;;6.97;2.20;;;20.80;99.90;;;;;;5040702;28;20099;-69
2023/07/15 03:24:14;;;;;;;2.72;1.63;;;20.80;99.90;;;;;;5024984;28;20187;-69
2023/07/15 03:26:40;;;;;;;7.00;1.73;;;20.70;99.90;;;;;;5042364;28;20113;-69
2023/07/15 03:29:08;;;;;;;3.22;1.70;;;20.70;99.90;;;;;;5019244;28;20045;-69
2023/07/15 03:31:35;;;;;;;3.63;1.65;;;20.60;99.90;;;;;;5018196;28;20100;-69
2023/07/15 03:34:01;;;;;;;2.50;1.70;;;20.60;99.90;;;;;;5043479;28;20117;-69
2023/07/15 03:36:27;;;;;;;4.38;1.92;;;20.60;99.90;;;;;;5017427;28;20144;-69
2023/07/15 03:38:52;;;;;;;5.05;1.88;;;20.60;99.90;;;;;;5025332;28;20523;-70
2023/07/15 03:41:19;;;;;;;3.03;1.60;;;20.60;99.90;;;;;;5025939;28;20465;-70
2023/07/15 03:43:44;;;;;;;7.32;1.70;;;20.60;99.90;;;;;;5017146;28;20363;-69
2023/07/15 03:46:12;;;;;;;5.88;2.13;;;20.60;99.90;;;;;;5019778;28;20033;-69
2023/07/15 03:48:39;;;;;;;3.63;1.67;;;20.50;99.90;;;;;;5041448;28;20049;-69
2023/07/15 03:51:06;;;;;;;4.53;2.30;;;20.50;99.90;;;;;;5024195;28;20402;-70
2023/07/15 03:53:32;;;;;;;2.85;1.60;;;20.50;99.90;;;;;;5044139;28;20162;-71
2023/07/15 03:55:58;;;;;;;;;;;20.40;99.90;;;;;;5042079;28;20047;-70
2023/07/15 03:58:24;;;;;;;2.95;1.65;;;20.40;99.90;;;;;;5025374;28;19916;-69
2023/07/15 04:00:50;;;;;;;3.58;1.58;;;20.40;99.90;;;;;;5041241;28;20418;-70
2023/07/15 04:03:16;;;;;;;4.72;1.80;;;20.30;99.90;;;;;;5043807;28;20103;-70
2023/07/15 04:05:42;;;;;;;6.25;2.22;;;20.30;99.90;;;;;;5022982;28;20123;-69
2023/07/15 04:08:07;;;;;;;6.05;2.05;;;20.30;99.90;;;;;;5029212;28;20052;-69
2023/07/15 04:10:33;;;;;;;4.13;1.92;;;20.20;99.90;;;;;;5023578;28;20136;-69
2023/07/15 04:12:59;;;;;;;3.85;1.73;;;20.20;99.90;;;;;;5022470;28;20073;-70
2023/07/15 04:15:25;;;;;;;3.25;1.70;;;20.20;99.90;;;;;;5025174;28;20052;-69
2023/07/15 04:17:50;;;;;;;8.82;2.00;;;20.20;99.90;;;;;;5021624;28;20128;-69
2023/07/15 04:20:17;;;;;;;5.25;1.73;;;20.10;99.90;;;;;;5040726;28;20045;-69
2023/07/15 04:22:43;;;;;;;6.00;2.05;;;20.10;99.90;;;;;;5039668;28;20048;-69
2023/07/15 04:25:11;;;;;;;5.30;2.17;;;20.10;99.90;;;;;;5045028;28;20037;-69
2023/07/15 04:27:41;;;;;;;3.97;1.95;;;20.10;99.90;;;;;;5020431;28;20047;-69
2023/07/15 04:30:10;;;;;;;3.92;1.73;;;20.10;99.90;;;;;;5044800;28;20036;-69
2023/07/15 04:32:36;;;;;;;8.90;2.25;;;20.10;99.90;;;;;;5037197;28;20057;-69
2023/07/15 04:35:02;;;;;;;5.80;1.90;;;20.10;99.90;;;;;;5021328;28;20134;-69
2023/07/15 04:37:29;;;;;;;6.32;2.00;;;20.10;99.90;;;;;;5047711;28;20649;-69
2023/07/15 04:39:55;;;;;;;3.50;2.03;;;20.10;99.90;;;;;;5043341;28;20329;-69
2023/07/15 04:42:21;;;;;;;6.82;2.05;;;20.10;99.90;;;;;;5025656;28;20098;-69
2023/07/15 04:44:47;;;;;;;;;;;20.10;99.90;;;;;;5001530;28;20045;-69
2023/07/15 04:47:13;;;;;;;4.68;1.77;;;20.10;99.90;;;;;;5029273;28;19927;-70
2023/07/15 04:49:38;;;;;;;3.83;2.08;;;20.10;99.90;;;;;;5028165;28;20033;-69
2023/07/15 04:52:04;;;;;;;4.60;2.03;;;20.10;99.90;;;;;;5043315;28;20582;-69
2023/07/15 04:54:30;;;;;;;5.35;1.80;;;20.10;99.90;;;;;;5023910;28;20147;-70
2023/07/15 04:56:56;;;;;;;3.30;1.67;;;20.10;99.90;;;;;;5017560;28;20391;-69
2023/07/15 04:59:22;;;;;;;4.88;2.10;;;20.10;99.90;;;;;;5030022;28;20060;-69
2023/07/15 05:01:48;;;;;;;5.68;2.08;;;20.10;99.90;;;;;;5039820;28;20120;-69
2023/07/15 05:04:14;;;;;;;;;;;20.10;99.90;;;;;;5042979;28;20417;-69
2023/07/15 05:06:40;;;;;;;4.05;1.77;;;20.10;99.90;;;;;;5037118;28;19938;-69
2023/07/15 05:09:06;;;;;;;4.60;1.98;;;20.10;99.90;;;;;;5008237;28;20037;-69
2023/07/15 05:11:32;;;;;;;3.40;1.70;;;20.10;99.90;;;;;;5039143;28;20135;-70
2023/07/15 05:13:58;;;;;;;3.50;1.80;;;20.10;99.90;;;;;;5025278;28;20072;-69
2023/07/15 05:16:24;;;;;;;2.95;1.50;;;20.10;99.90;;;;;;5041453;28;20056;-69
2023/07/15 05:18:50;;;;;;;5.78;2.08;;;20.10;99.90;;;;;;5017573;28;20121;-70
2023/07/15 05:21:16;;;;;;;4.35;1.80;;;20.10;99.90;;;;;;5020183;28;20172;-69
2023/07/15 05:23:42;;;;;;;3.20;1.70;;;20.10;99.90;;;;;;5020472;28;20180;-70
2023/07/15 05:26:08;;;;;;;8.70;1.80;;;20.20;99.90;;;;;;5022074;28;20240;-69
2023/07/15 05:28:35;;;;;;;;;;;20.20;99.90;;;;;;5019579;28;20286;-69
2023/07/15 05:31:01;;;;;;;5.13;2.22;;;20.20;99.90;;;;;;5044583;28;19921;-69
2023/07/15 05:33:27;;;;;;;3.90;2.08;;;20.20;99.90;;;;;;5043321;28;20049;-69
2023/07/15 05:35:54;;;;;;;;;;;20.20;99.90;;;;;;5047511;28;20376;-69
2023/07/15 05:38:24;;;;;;;;;;;20.20;99.90;;;;;;5039577;28;19916;-70
2023/07/15 05:40:54;;;;;;;3.67;1.83;;;20.20;99.90;;;;;;5035349;28;19921;-69
2023/07/15 05:43:20;;;;;;;6.13;1.80;;;20.30;99.90;;;;;;5026916;28;20070;-69
2023/07/15 05:45:46;;;;;;;4.75;2.17;;;20.30;99.90;;;;;;5021885;28;20574;-69
2023/07/15 05:48:12;;;;;;;8.60;2.10;;;20.40;99.90;;;;;;5037668;28;20103;-69
2023/07/15 05:50:38;;;;;;;;;;;20.40;99.90;;;;;;5021204;28;20298;-69
2023/07/15 05:53:04;;;;;;;4.88;1.63;;;20.40;99.90;;;;;;5043142;28;20064;-69
2023/07/15 05:55:33;;;;;;;3.60;1.80;;;20.50;99.90;;;;;;5046225;28;20040;-69
2023/07/15 05:58:02;;;;;;;2.75;1.65;;;20.50;99.90;;;;;;5023912;28;20158;-70
2023/07/15 06:00:29;;;;;;;6.43;2.22;;;20.60;99.90;;;;;;5012023;28;20407;-69
2023/07/15 06:02:54;;;;;;;4.10;1.70;;;20.60;99.90;;;;;;5039532;28;20519;-70
2023/07/15 06:05:20;;;;;;;5.78;1.90;;;20.60;99.90;;;;;;5008529;28;20169;-70
2023/07/15 06:07:48;;;;;;;3.92;1.60;;;20.70;99.90;;;;;;5035919;28;20041;-70
2023/07/15 06:10:14;;;;;;;2.90;1.83;;;20.70;99.90;;;;;;5020081;28;20140;-70
2023/07/15 06:12:39;;;;;;;;;;;20.70;99.90;;;;;;5007614;28;20055;-70
2023/07/15 06:15:06;;;;;;;4.72;1.70;;;20.80;99.90;;;;;;5022361;28;19916;-71
2023/07/15 06:17:31;;;;;;;4.68;2.15;;;20.80;99.90;;;;;;5020339;28;20068;-70
2023/07/15 06:19:57;;;;;;;5.80;1.80;;;20.90;99.90;;;;;;5035479;28;20124;-70
2023/07/15 06:22:23;;;;;;;4.90;1.98;;;20.90;99.90;;;;;;5020190;28;20057;-69
2023/07/15 06:24:48;;;;;;;4.65;2.10;;;21.00;99.90;;;;;;5038528;28;20049;-70
2023/07/15 06:27:14;;;;;;;4.60;1.60;;;21.00;99.90;;;;;;5034938;28;20084;-70
2023/07/15 06:29:40;;;;;;;5.05;1.75;;;21.10;99.90;;;;;;5036718;28;20380;-71
2023/07/15 06:32:05;;;;;;;5.60;1.65;;;21.10;99.90;;;;;;5028572;28;20067;-70
2023/07/15 06:34:31;;;;;;;;;;;21.10;99.90;;;;;;5024007;28;20491;-70
2023/07/15 06:36:57;;;;;;;5.55;1.98;;;21.20;99.90;;;;;;5047081;28;19916;-71
2023/07/15 06:39:23;;;;;;;6.05;2.05;;;21.20;99.90;;;;;;5046082;28;20112;-70
2023/07/15 06:41:52;;;;;;;;;;;21.30;99.90;;;;;;5025157;28;20105;-71
2023/07/15 06:44:18;;;;;;;2.58;1.58;;;21.30;99.90;;;;;;5021929;28;20366;-71
2023/07/15 06:46:43;;;;;;;;;;;21.40;99.90;;;;;;5038292;28;20040;-70
2023/07/15 06:49:09;;;;;;;5.78;2.28;;;21.40;99.90;;;;;;5042712;28;19923;-71
2023/07/15 06:51:35;;;;;;;7.70;1.90;;;21.50;99.90;;;;;;5045631;28;20037;-71
2023/07/15 06:54:01;;;;;;;3.85;1.88;;;21.50;99.90;;;;;;5027158;28;20040;-71
2023/07/15 06:56:28;;;;;;;2.95;1.45;;;21.60;99.90;;;;;;5005546;28;20698;-71
2023/07/15 06:58:54;;;;;;;7.50;1.80;;;21.60;99.90;;;;;;5042834;28;20109;-71
2023/07/15 07:01:19;;;;;;;;;;;21.70;99.90;;;;;;5007802;28;20064;-71
2023/07/15 07:03:45;;;;;;;5.10;1.90;;;21.70;99.90;;;;;;5042548;28;19942;-71
2023/07/15 07:06:12;;;;;;;4.25;1.98;;;21.70;99.90;;;;;;5020338;28;20111;-72
2023/07/15 07:08:37;;;;;;;7.22;2.13;;;21.80;99.90;;;;;;5019622;28;20045;-70
2023/07/15 07:11:03;;;;;;;;;;;21.90;99.90;;;;;;5020963;28;20040;-70
2023/07/15 07:13:29;;;;;;;4.20;1.73;;;22.00;99.90;;;;;;5026949;28;20007;-70
2023/07/15 07:15:58;;;;;;;;;;;22.10;99.90;;;;;;5024995;28;20037;-69
2023/07/15 07:18:27;;;;;;;3.17;1.83;;;22.10;99.90;;;;;;5020458;28;19927;-70
2023/07/15 07:20:59;;;;;;;3.78;1.60;;;22.10;99.90;;;;;;5028113;28;20045;-69
2023/07/15 07:23:25;;;;;;;2.72;1.63;;;22.10;99.90;;;;;;5028063;28;20049;-69
2023/07/15 07:25:52;;;;;;;3.70;1.38;;;22.10;99.90;;;;;;5039819;28;20044;-69
2023/07/15 07:28:23;;;;;;;7.45;1.92;;;22.20;99.90;;;;;;5040001;28;20099;-69
2023/07/15 07:30:48;;;;;;;3.95;1.88;;;22.30;99.90;;;;;;5037797;28;20049;-69
2023/07/15 07:35:46;;;;;;;2.80;1.38;;;22.30;99.90;;;;;;5024420;28;19925;-71
2023/07/15 07:38:12;;;;;;;4.82;1.70;;;22.40;99.90;;;;;;5011423;28;20601;-71
2023/07/15 07:40:38;;;;;;;2.72;1.42;;;22.50;99.90;;;;;;5012597;28;20125;-72
2023/07/15 07:43:05;;;;;;;;;;;22.50;99.90;;;;;;5012221;28;20117;-72
2023/07/15 07:45:30;;;;;;;2.80;1.00;;;22.50;99.90;;;;;;5013043;28;19917;-71
2023/07/15 07:47:56;;;;;;;;;;;22.60;99.90;;;;;;5030882;28;20116;-71
2023/07/15 07:50:22;;;;;;;4.20;1.38;;;22.70;99.90;;;;;;5030389;28;19923;-71
2023/07/15 07:52:47;;;;;;;;;;;22.70;99.90;;;;;;5011978;28;20063;-71
2023/07/15 07:55:13;;;;;;;1.35;0.70;;;22.70;99.90;;;;;;5030952;28;20433;-72
2023/07/15 07:57:39;;;;;;;;;;;22.80;99.90;;;;;;5028292;28;20091;-71
2023/07/15 08:00:05;;;;;;;1.85;1.00;;;22.80;99.90;;;;;;5025231;28;20367;-71
2023/07/15 08:02:31;;;;;;;2.38;0.98;;;22.80;99.90;;;;;;5010555;28;20502;-72
2023/07/15 08:04:56;;;;;;;;;;;22.90;99.90;;;;;;5012210;28;20049;-71
2023/07/15 08:07:22;;;;;;;2.45;1.13;;;22.90;99.90;;;;;;5012459;28;19917;-71
2023/07/15 08:09:48;;;;;;;;;;;23.00;99.90;;;;;;5029928;28;20092;-71
2023/07/15 08:12:13;;;;;;;1.35;1.00;;;23.00;99.90;;;;;;5026924;28;19979;-71
2023/07/15 08:14:39;;;;;;;;;;;23.00;99.90;;;;;;5027817;28;20038;-71
2023/07/15 08:17:05;;;;;;;2.17;1.20;;;23.10;99.90;;;;;;5030184;28;19921;-71
2023/07/15 08:19:30;;;;;;;;;;;23.10;99.90;;;;;;5007663;28;20399;-71
2023/07/15 08:21:56;;;;;;;2.90;0.85;;;23.10;99.90;;;;;;5025801;28;20375;-72
2023/07/15 08:24:21;;;;;;;;;;;23.00;99.90;;;;;;5011796;28;20049;-71
2023/07/15 08:26:47;;;;;;;1.83;0.90;;;22.90;99.90;;;;;;5024225;28;19917;-72
2023/07/15 08:29:13;;;;;;;;;;;22.90;99.90;;;;;;4985741;28;20518;-71
2023/07/15 08:31:38;;;;;;;1.85;0.73;;;22.90;99.90;;;;;;5029412;28;20290;-71
2023/07/15 08:34:04;;;;;;;;;;;22.80;99.90;;;;;;5028405;28;20069;-71
2023/07/15 08:36:30;;;;;;;4.20;1.00;;;22.80;99.90;;;;;;5028836;28;19917;-71
2023/07/15 08:38:55;;;;;;;;;;;22.80;99.90;;;;;;5012074;28;20055;-71
2023/07/15 08:41:25;;;;;;;3.85;0.60;;;22.80;99.90;;;;;;5006447;28;19920;-71
2023/07/15 08:43:51;;;;;;;3.97;0.93;;;22.90;99.90;;;;;;5007189;28;20096;-71
2023/07/15 08:46:30;;;;;;;1.65;0.93;;;22.90;99.90;;;;;;5011677;28;20048;-71
2023/07/15 08:48:58;;;;;;;1.95;0.77;;;23.00;99.90;;;;;;5011778;28;20148;-72
2023/07/15 08:51:31;;;;;;;4.35;0.70;;;23.00;99.90;;;;;;5011630;28;20045;-71
2023/07/15 08:53:59;;;;;;;1.58;0.63;;;23.10;99.90;;;;;;5029417;28;20152;-71
2023/07/15 08:56:25;;;;;;;2.00;1.00;;;23.10;99.90;;;;;;5026471;28;20041;-71
2023/07/15 08:58:51;;;;;;;;;;;23.20;99.90;;;;;;5029985;28;20075;-72
2023/07/15 09:01:17;;;;;;;2.17;1.00;;;23.20;99.90;;;;;;5010539;28;20398;-71
2023/07/15 09:03:42;;;;;;;;;;;23.10;99.90;;;;;;5024454;28;20185;-71
2023/07/15 09:06:09;;;;;;;2.75;0.98;;;23.10;99.90;;;;;;5007597;28;19923;-71
2023/07/15 09:08:34;;;;;;;1.85;0.60;;;23.20;99.90;;;;;;5027620;28;20049;-71
2023/07/15 09:11:01;;;;;;;;;;;23.20;99.90;;;;;;5023195;28;20624;-70
2023/07/15 09:13:32;;;;;;;1.98;0.88;;;23.30;99.90;;;;;;4992252;28;20092;-71
2023/07/15 09:15:59;;;;;;;1.45;0.80;;;23.40;99.90;;;;;;5008127;28;20132;-71
2023/07/15 09:18:25;;;;;;;3.85;1.25;;;23.60;99.90;;;;;;5023168;28;20568;-71
2023/07/15 09:21:05;;;;;;;;;;;23.80;99.90;;;;;;5011613;28;20049;-71
2023/07/15 09:23:31;;;;;;;3.08;1.25;;;23.90;99.90;;;;;;5018601;28;20401;-71
2023/07/15 09:26:00;;;;;;;4.35;0.90;;;24.00;99.90;;;;;;5008924;28;20076;-71
2023/07/15 09:28:26;;;;;;;4.18;1.15;;;24.00;99.90;;;;;;5008826;28;20041;-71
2023/07/15 09:30:52;;;;;;;2.78;0.88;;;24.00;99.90;;;;;;5028820;28;20038;-71
2023/07/15 09:33:35;;;;;;;3.13;0.98;;;24.00;99.90;;;;;;5013231;28;20045;-71
2023/07/15 09:36:01;;;;;;;2.53;1.17;;;24.10;99.90;;;;;;5006943;28;20037;-71
2023/07/15 09:38:36;;;;;;;2.97;0.80;;;24.10;99.90;;;;;;5011402;28;20083;-71
2023/07/15 09:41:04;;;;;;;3.83;0.88;;;24.10;99.90;;;;;;5010824;28;20064;-71
2023/07/15 09:43:48;;;;;;;2.33;0.90;;;24.10;99.90;;;;;;5005862;28;20088;-71
2023/07/15 09:46:15;;;;;;;2.55;0.80;;;24.10;99.90;;;;;;5007432;28;20076;-71
2023/07/15 09:48:44;;;;;;;2.42;1.00;;;24.10;99.90;;;;;;5025185;28;20045;-71
2023/07/15 09:51:15;;;;;;;1.23;0.70;;;24.20;99.90;;;;;;5029574;28;20040;-71
2023/07/15 09:53:51;;;;;;;3.40;0.80;;;24.30;99.90;;;;;;5027219;28;20046;-71
2023/07/15 09:56:30;;;;;;;2.33;0.77;;;24.40;99.90;;;;;;5028413;28;20108;-71
2023/07/15 09:59:14;;;;;;;2.53;1.35;;;24.50;99.90;;;;;;5010454;28;20120;-71
2023/07/15 10:01:53;;;;;;;1.50;0.77;;;24.60;99.90;;;;;;5008894;28;20124;-71
2023/07/15 10:04:29;;;;;;;3.97;0.98;;;24.80;99.90;;;;;;5010073;28;20049;-70
2023/07/15 10:06:57;;;;;;;3.25;1.20;;;24.90;99.90;;;;;;5027557;28;20243;-71
2023/07/15 10:09:23;;;;;;;2.10;1.20;;;25.10;99.90;;;;;;5022740;28;20049;-70
2023/07/15 10:11:51;;;;;;;2.72;0.80;;;25.20;99.90;;;;;;5007795;28;20247;-71
2023/07/15 10:14:19;;;;;;;2.92;0.80;;;25.30;99.90;;;;;;5010216;28;20125;-71
2023/07/15 10:16:45;;;;;;;2.30;0.88;;;25.20;99.90;;;;;;5005714;28;20164;-71
2023/07/15 10:19:39;;;;;;;1.95;0.70;;;25.20;99.90;;;;;;5021837;28;20518;-71
2023/07/15 10:22:06;;;;;;;2.33;1.10;;;25.00;99.90;;;;;;5027898;28;20041;-71
2023/07/15 10:24:33;;;;;;;2.22;1.10;;;24.90;99.90;;;;;;5027675;28;20438;-71
2023/07/15 10:27:01;;;;;;;1.90;1.00;;;24.90;99.90;;;;;;5009238;28;20034;-70
2023/07/15 10:29:30;;;;;;;2.03;0.80;;;24.90;99.90;;;;;;5021554;28;20406;-70
2023/07/15 10:32:25;;;;;;;1.75;0.88;;;24.80;99.90;;;;;;5027515;28;20049;-71
2023/07/15 10:34:52;;;;;;;1.92;0.95;;;24.80;99.90;;;;;;4970400;28;20107;-71
2023/07/15 10:37:19;;;;;;;1.75;1.00;;;24.90;99.90;;;;;;5025658;28;20038;-71
2023/07/15 10:39:46;;;;;;;2.28;0.60;;;24.90;99.90;;;;;;5006601;28;20042;-71
2023/07/15 10:42:16;;;;;;;2.58;0.90;;;25.00;99.90;;;;;;5009909;28;20120;-71
2023/07/15 10:44:51;;;;;;;2.33;1.10;;;25.10;99.90;;;;;;5027612;28;20073;-71
2023/07/15 10:47:17;;;;;;;2.65;0.80;;;25.20;99.90;;;;;;5003674;28;20267;-71
2023/07/15 10:49:43;;;;;;;3.67;1.10;;;25.30;99.90;;;;;;5031871;28;20119;-71
2023/07/15 10:52:10;;;;;;;1.83;0.95;;;25.20;99.90;;;;;;5012147;28;20037;-71
2023/07/15 10:54:38;;;;;;;2.03;0.80;;;25.20;99.90;;;;;;5009549;28;20518;-71
2023/07/15 10:57:09;;;;;;;3.33;1.08;;;25.10;99.90;;;;;;5030017;28;20646;-71
2023/07/15 10:59:45;;;;;;;2.38;1.05;;;24.90;99.90;;;;;;5014362;28;20046;-71
2023/07/15 11:02:11;;;;;;;;;;;24.80;99.90;;;;;;5031037;28;20111;-71
2023/07/15 11:04:39;;;;;;;1.87;0.90;;;24.60;99.90;;;;;;5008338;28;19944;-71
2023/07/15 11:07:07;;;;;;;2.72;0.90;;;24.50;99.90;;;;;;5012978;28;20526;-71
2023/07/15 11:09:38;;;;;;;3.30;1.10;;;24.40;99.90;;;;;;4997146;28;20037;-71
2023/07/15 11:12:14;;;;;;;2.47;1.10;;;24.40;99.90;;;;;;5031188;28;20358;-71
2023/07/15 11:14:42;;;;;;;3.85;0.98;;;24.40;99.90;;;;;;5029960;28;20154;-71
2023/07/15 11:17:09;;;;;;;1.30;0.82;;;24.40;99.90;;;;;;5030537;28;20358;-71
2023/07/15 11:19:35;;;;;;;2.72;1.35;;;24.40;99.90;;;;;;5031565;28;20042;-71
2023/07/15 11:22:05;;;;;;;1.88;1.05;;;24.40;99.90;;;;;;5025985;28;20092;-71
2023/07/15 11:24:31;;;;;;;2.70;0.98;;;24.50;99.90;;;;;;5012876;28;20045;-70
2023/07/15 11:27:00;;;;;;;2.88;1.10;;;24.50;99.90;;;;;;5030496;28;20041;-71
2023/07/15 11:29:26;;;;;;;1.83;0.98;;;24.60;99.90;;;;;;5003954;28;20080;-71
2023/07/15 11:31:54;;;;;;;2.00;1.13;;;24.60;99.90;;;;;;5002753;28;20071;-71
2023/07/15 11:34:22;;;;;;;4.45;1.20;;;24.50;99.90;;;;;;5030772;28;20087;-71
2023/07/15 11:36:52;;;;;;;1.20;0.70;;;24.50;99.90;;;;;;5025554;28;20046;-71
2023/07/15 11:39:18;;;;;;;2.35;1.05;;;24.40;99.90;;;;;;5024075;28;20041;-72
2023/07/15 11:41:44;;;;;;;1.95;1.10;;;24.40;99.90;;;;;;5004377;28;20053;-71
2023/07/15 11:44:13;;;;;;;5.20;1.08;;;24.40;99.90;;;;;;5012919;28;20052;-71
2023/07/15 11:46:40;;;;;;;2.20;1.00;;;24.40;99.90;;;;;;5025608;28;20527;-71
2023/07/15 11:49:06;;;;;;;2.47;1.17;;;24.30;99.90;;;;;;5030139;28;20403;-71
2023/07/15 11:51:34;;;;;;;3.00;0.98;;;24.40;99.90;;;;;;5027106;28;20096;-71
2023/07/15 11:54:01;;;;;;;1.80;0.90;;;24.40;99.90;;;;;;5028734;28;20042;-71
2023/07/15 11:56:47;;;;;;;2.00;0.93;;;24.40;99.90;;;;;;5011479;28;20207;-71
2023/07/15 11:59:26;;;;;;;1.75;0.90;;;24.50;99.90;;;;;;5009925;28;20402;-71
2023/07/15 12:01:53;;;;;;;1.73;1.00;;;24.50;99.90;;;;;;5027707;28;20304;-71
2023/07/15 12:04:21;;;;;;;2.22;0.98;;;24.60;99.90;;;;;;5011620;28;20041;-71
2023/07/15 12:06:54;;;;;;;2.13;1.17;;;24.70;99.90;;;;;;5024012;28;20102;-71
2023/07/15 12:09:24;;;;;;;2.28;1.08;;;24.70;99.90;;;;;;5025401;28;20045;-71
2023/07/15 12:11:50;;;;;;;3.13;1.17;;;24.70;99.90;;;;;;5006743;28;20040;-71
2023/07/15 12:14:17;;;;;;;2.53;1.10;;;24.70;99.90;;;;;;5024376;28;20140;-71
2023/07/15 12:16:43;;;;;;;1.83;1.27;;;24.80;99.90;;;;;;5022699;28;20385;-70
2023/07/15 12:19:12;;;;;;;3.42;1.42;;;24.90;99.90;;;;;;5030083;28;20450;-71
2023/07/15 12:21:38;;;;;;;1.67;0.88;;;25.10;99.90;;;;;;5027205;28;20045;-71
2023/07/15 12:24:04;;;;;;;3.80;1.23;;;25.10;99.90;;;;;;5011854;28;20046;-71
2023/07/15 12:26:30;;;;;;;2.08;1.17;;;25.10;99.90;;;;;;5004860;28;20087;-71
2023/07/15 12:28:57;;;;;;;3.00;1.33;;;25.10;99.90;;;;;;5022086;28;20121;-70
2023/07/15 12:31:23;;;;;;;2.80;1.25;;;25.10;99.90;;;;;;5030137;28;20037;-71
2023/07/15 12:33:49;;;;;;;2.53;1.00;;;24.90;99.90;;;;;;5022428;28;20048;-71
2023/07/15 12:36:16;;;;;;;2.95;1.10;;;24.90;99.90;;;;;;5010349;28;20044;-71
2023/07/15 12:38:42;;;;;;;1.80;1.00;;;24.90;99.90;;;;;;5002069;28;20056;-71
2023/07/15 12:41:08;;;;;;;2.53;1.10;;;25.00;99.90;;;;;;5029105;28;20041;-71
2023/07/15 12:43:35;;;;;;;4.95;1.80;;;25.00;99.90;;;;;;5029171;28;20100;-71
2023/07/15 12:46:02;;;;;;;4.35;1.20;;;25.00;99.90;;;;;;5011428;28;20502;-71
2023/07/15 12:48:28;;;;;;;2.78;1.40;;;24.90;99.90;;;;;;5022419;28;20045;-70
2023/07/15 12:50:54;;;;;;;3.10;1.30;;;24.80;99.90;;;;;;5005037;28;20124;-70
2023/07/15 12:53:22;;;;;;;4.07;1.17;;;24.70;99.90;;;;;;5029567;28;20129;-71
2023/07/15 12:55:48;;;;;;;2.10;1.00;;;24.60;99.90;;;;;;5023076;28;20076;-71
2023/07/15 12:58:14;;;;;;;2.72;1.50;;;24.60;99.90;;;;;;5010698;28;20033;-71
2023/07/15 13:00:40;;;;;;;1.83;1.17;;;24.70;99.90;;;;;;5011578;28;20092;-71
2023/07/15 13:03:09;;;;;;;2.58;1.00;;;24.90;99.90;;;;;;5029057;28;20450;-71